Time;durP1;ratioP1;P1;durP2;ratioP2;P2;SDS_P1;SDS_P2;PMS_P1;PMS_P2;Temp;Humidity;BMP_temperature;BMP_pressure;BME280_temperature;BME280_humidity;BME280_pressure;Samples;Min_cycle;Max_cycle;Signal;HPM_P1;HPM_P2
2021/09/12 00:01:19;;;;;;;9.07;7.43;;;;;;;16.50;88.90;100749.34;5044755;28;20041;-77
2021/09/12 00:03:44;;;;;;;8.40;6.93;;;;;;;16.44;88.97;100756.59;5041659;28;20038;-77
2021/09/12 00:06:10;;;;;;;9.18;6.15;;;;;;;16.44;89.09;100753.94;5043107;28;20132;-76
2021/09/12 00:08:35;;;;;;;10.10;7.47;;;;;;;16.41;88.68;100755.81;5039864;28;20045;-76
2021/09/12 00:11:00;;;;;;;9.68;8.40;;;;;;;16.37;88.80;100755.03;5034715;28;20075;-76
2021/09/12 00:13:26;;;;;;;8.55;6.20;;;;;;;16.37;88.82;100751.47;5026768;28;20033;-77
2021/09/12 00:15:51;;;;;;;5.95;5.22;;;;;;;16.36;88.92;100758.59;5045477;28;20033;-77
2021/09/12 00:18:16;;;;;;;6.75;4.80;;;;;;;16.36;88.54;100758.59;5041131;28;20033;-76
2021/09/12 00:20:42;;;;;;;8.60;5.07;;;;;;;16.35;88.50;100758.66;5040465;28;20037;-76
2021/09/12 00:23:07;;;;;;;7.63;5.70;;;;;;;16.35;88.46;100761.31;5040541;28;20452;-76
2021/09/12 00:25:33;;;;;;;8.48;6.50;;;;;;;16.35;88.64;100756.00;5041914;28;20028;-76
2021/09/12 00:27:58;;;;;;;6.63;5.18;;;;;;;16.37;88.47;100756.81;5039766;28;20033;-76
2021/09/12 00:30:23;;;;;;;6.63;5.93;;;;;;;16.36;88.49;100753.28;5042597;28;20040;-76
2021/09/12 00:32:49;;;;;;;9.10;7.45;;;;;;;16.35;88.24;100756.00;5043097;28;20116;-76
2021/09/12 00:35:14;;;;;;;5.80;4.80;;;;;;;16.36;87.97;100760.38;5050892;28;20057;-77
2021/09/12 00:37:39;;;;;;;9.43;6.40;;;;;;;16.35;88.43;100762.19;5054171;28;20029;-77
2021/09/12 00:40:06;;;;;;;7.10;6.07;;;;;;;16.41;89.23;100766.47;5053615;28;20049;-77
2021/09/12 00:42:33;;;;;;;6.97;5.38;;;;;;;16.49;88.51;100764.47;5050885;28;20029;-77
2021/09/12 00:44:58;;;;;;;8.73;5.88;;;;;;;16.59;88.62;100760.66;5055283;28;20040;-77
2021/09/12 00:47:23;;;;;;;9.48;8.25;;;;;;;16.72;87.84;100755.84;5049781;28;20108;-76
2021/09/12 00:49:49;;;;;;;9.10;6.90;;;;;;;16.79;87.39;100753.91;5030013;28;20037;-76
2021/09/12 00:52:14;;;;;;;7.55;4.63;;;;;;;16.82;87.25;100759.16;5045603;28;20102;-77
2021/09/12 00:54:41;;;;;;;5.68;4.10;;;;;;;16.92;87.42;100762.44;5045270;28;20179;-77
2021/09/12 00:57:08;;;;;;;11.32;7.03;;;;;;;17.01;87.28;100757.72;5043453;28;20041;-76
2021/09/12 00:59:39;;;;;;;7.15;5.97;;;;;;;17.06;86.99;100755.78;5045682;28;20554;-76
2021/09/12 01:02:05;;;;;;;9.80;7.00;;;;;;;17.09;86.95;100746.84;5054713;28;20064;-77
2021/09/12 01:04:32;;;;;;;9.15;7.47;;;;;;;17.08;87.60;100737.97;5048849;28;20046;-76
2021/09/12 01:06:58;;;;;;;7.95;7.05;;;;;;;17.09;87.16;100739.69;5045850;28;20021;-77
2021/09/12 01:09:23;;;;;;;7.38;6.47;;;;;;;17.03;87.06;100750.56;5043933;28;20036;-76
2021/09/12 01:11:49;;;;;;;10.07;8.50;;;;;;;16.92;87.15;100755.31;5046568;28;20483;-77
2021/09/12 01:14:14;;;;;;;8.80;7.70;;;;;;;16.81;88.10;100754.75;5029857;28;20144;-77
2021/09/12 01:16:39;;;;;;;8.02;5.97;;;;;;;16.76;88.43;100751.31;5046782;28;20037;-77
2021/09/12 01:19:05;;;;;;;9.57;6.55;;;;;;;16.73;87.91;100748.72;5045820;28;20716;-77
2021/09/12 01:21:32;;;;;;;10.70;6.32;;;;;;;16.70;87.86;100757.69;5043853;28;20507;-77
2021/09/12 01:23:57;;;;;;;9.80;8.13;;;;;;;16.59;87.93;100750.00;5044698;28;20134;-77
2021/09/12 01:26:26;;;;;;;10.43;8.05;;;;;;;16.52;89.12;100756.41;5048262;28;20076;-78
2021/09/12 01:28:51;;;;;;;12.05;7.60;;;;;;;16.48;89.36;100753.84;5052003;28;20123;-77
2021/09/12 01:31:31;;;;;;;9.85;8.52;;;;;;;16.51;90.39;100757.31;5046179;28;20168;-77
2021/09/12 01:33:58;;;;;;;10.60;8.52;;;;;;;16.55;90.60;100753.63;5052929;28;20033;-76
2021/09/12 01:36:24;;;;;;;15.32;9.38;;;;;;;16.60;90.62;100746.41;5063174;28;20407;-77
2021/09/12 01:38:50;;;;;;;12.88;10.10;;;;;;;16.62;90.68;100747.22;5054642;28;20037;-77
2021/09/12 01:41:15;;;;;;;11.63;9.35;;;;;;;16.66;90.76;100748.00;5046296;28;20034;-77
2021/09/12 01:43:53;;;;;;;11.73;9.13;;;;;;;16.74;90.31;100745.13;5056362;28;20474;-76
2021/09/12 01:46:19;;;;;;;10.15;8.57;;;;;;;16.75;89.54;100738.91;5052231;28;20037;-76
2021/09/12 01:48:44;;;;;;;12.30;9.48;;;;;;;16.70;88.96;100735.50;5037188;28;20057;-76
2021/09/12 01:51:10;;;;;;;9.15;7.25;;;;;;;16.59;89.31;100744.66;5048419;28;20040;-76
2021/09/12 01:53:36;;;;;;;11.50;10.15;;;;;;;16.54;89.37;100745.72;5051242;28;20036;-76
2021/09/12 01:56:01;;;;;;;9.57;7.47;;;;;;;16.51;89.14;100745.78;5027754;28;20102;-77
2021/09/12 01:58:27;;;;;;;11.77;8.25;;;;;;;16.50;89.09;100744.91;5048587;28;20115;-77
2021/09/12 02:00:55;;;;;;;9.55;7.32;;;;;;;16.52;89.22;100747.53;5047551;28;20035;-76
2021/09/12 02:03:20;;;;;;;8.10;7.25;;;;;;;16.60;88.96;100743.72;5046315;28;20045;-77
2021/09/12 02:05:47;;;;;;;9.05;7.28;;;;;;;16.57;88.48;100746.50;5045860;28;20087;-77
2021/09/12 02:08:12;;;;;;;8.05;6.50;;;;;;;16.55;88.55;100742.97;5045879;28;20075;-77
2021/09/12 02:10:37;;;;;;;6.97;5.40;;;;;;;16.51;88.37;100738.66;5047514;28;20368;-76
2021/09/12 02:13:03;;;;;;;15.48;9.52;;;;;;;16.49;88.07;100737.84;5035429;28;20053;-76
2021/09/12 02:15:28;;;;;;;8.65;6.72;;;;;;;16.44;88.02;100734.41;5044742;28;20029;-76
2021/09/12 02:17:54;;;;;;;7.95;5.85;;;;;;;16.40;87.85;100736.31;5041798;28;20033;-76
2021/09/12 02:20:19;;;;;;;7.95;5.55;;;;;;;16.37;87.97;100735.50;5045029;28;20458;-77
2021/09/12 02:22:45;;;;;;;9.73;6.18;;;;;;;16.37;88.06;100738.16;5042770;28;20546;-76
2021/09/12 02:25:10;;;;;;;9.70;7.10;;;;;;;16.34;88.00;100739.09;5046124;28;20128;-76
2021/09/12 02:27:36;;;;;;;9.65;7.38;;;;;;;16.35;88.34;100740.00;5044757;28;20472;-76
2021/09/12 02:30:02;;;;;;;22.65;8.57;;;;;;;16.40;88.05;100743.38;5045162;28;20503;-76
2021/09/12 02:32:27;;;;;;;8.10;6.45;;;;;;;16.40;87.72;100740.72;5037794;28;20056;-76
2021/09/12 02:34:53;;;;;;;6.55;5.28;;;;;;;16.34;87.47;100754.22;5047940;28;20041;-76
2021/09/12 02:37:18;;;;;;;8.45;6.10;;;;;;;16.36;87.89;100749.75;5046270;28;20041;-76
2021/09/12 02:39:43;;;;;;;8.70;6.07;;;;;;;16.44;87.97;100735.28;5044004;28;20040;-76
2021/09/12 02:42:09;;;;;;;15.52;10.30;;;;;;;16.52;87.94;100736.88;5041860;28;20063;-77
2021/09/12 02:44:34;;;;;;;11.55;8.13;;;;;;;16.55;87.72;100742.97;5045672;28;20037;-78
2021/09/12 02:47:00;;;;;;;11.18;6.32;;;;;;;16.59;88.05;100739.34;5044688;28;20044;-78
2021/09/12 02:49:26;;;;;;;7.88;5.50;;;;;;;16.60;87.86;100743.72;5044920;28;20176;-78
2021/09/12 02:51:51;;;;;;;8.55;5.70;;;;;;;16.58;88.25;100737.59;5047050;28;20479;-76
2021/09/12 02:54:16;;;;;;;7.22;5.72;;;;;;;16.62;87.80;100731.25;5050307;28;20029;-77
2021/09/12 02:56:42;;;;;;;12.63;10.35;;;;;;;16.60;88.29;100735.75;5042115;28;20076;-76
2021/09/12 02:59:07;;;;;;;14.43;10.35;;;;;;;16.59;88.58;100734.00;5044433;28;20123;-77
2021/09/12 03:01:32;;;;;;;11.38;8.55;;;;;;;16.64;89.06;100731.22;5044203;28;20040;-76
2021/09/12 03:03:58;;;;;;;13.10;8.77;;;;;;;16.63;88.97;100735.66;5043385;28;20068;-76
2021/09/12 03:06:23;;;;;;;13.38;9.93;;;;;;;16.60;89.38;100738.41;5041799;28;20021;-76
2021/09/12 03:08:48;;;;;;;8.35;7.40;;;;;;;16.51;89.27;100741.34;5040989;28;20029;-76
2021/09/12 03:11:14;;;;;;;12.88;8.27;;;;;;;16.48;88.95;100736.09;5043718;28;20061;-76
2021/09/12 03:13:39;;;;;;;5.65;4.15;;;;;;;16.42;87.87;100730.91;5047667;28;20048;-77
2021/09/12 03:16:04;;;;;;;5.15;3.78;;;;;;;16.36;88.06;100742.63;5047281;28;20479;-75
2021/09/12 03:18:30;;;;;;;17.05;5.43;;;;;;;16.33;88.02;100736.50;5042771;28;20522;-77
2021/09/12 03:20:55;;;;;;;11.07;7.43;;;;;;;16.31;88.37;100739.19;5045510;28;20048;-77
2021/09/12 03:23:20;;;;;;;11.45;8.43;;;;;;;16.33;88.51;100736.50;5042240;28;20053;-76
2021/09/12 03:25:46;;;;;;;9.50;7.47;;;;;;;16.34;88.52;100733.78;5043813;28;20033;-77
2021/09/12 03:28:11;;;;;;;10.05;7.88;;;;;;;16.37;87.98;100731.06;5042977;28;20037;-77
2021/09/12 03:30:37;;;;;;;11.30;8.18;;;;;;;16.39;87.95;100726.53;5042249;28;20041;-77
2021/09/12 03:33:02;;;;;;;10.73;6.95;;;;;;;16.41;87.70;100732.72;5042044;28;20107;-77
2021/09/12 03:35:27;;;;;;;11.00;5.85;;;;;;;16.42;87.46;100736.25;5041692;28;20056;-77
2021/09/12 03:37:53;;;;;;;10.00;6.25;;;;;;;16.41;87.59;100732.72;5044340;28;20095;-76
2021/09/12 03:40:18;;;;;;;9.57;7.93;;;;;;;16.33;87.80;100739.16;5041048;28;20052;-78
2021/09/12 03:42:43;;;;;;;9.85;7.75;;;;;;;16.31;88.61;100733.00;5041336;28;20037;-77
2021/09/12 03:45:09;;;;;;;8.32;7.05;;;;;;;16.35;88.71;100737.34;5044691;28;20045;-77
2021/09/12 03:47:35;;;;;;;10.65;7.72;;;;;;;16.42;88.13;100725.59;5040263;28;20040;-77
2021/09/12 03:50:00;;;;;;;12.50;8.65;;;;;;;16.44;88.09;100729.09;5045802;28;20048;-78
2021/09/12 03:52:25;;;;;;;10.02;7.50;;;;;;;16.45;88.17;100730.81;5047577;28;20044;-76
2021/09/12 03:54:51;;;;;;;9.38;6.93;;;;;;;16.47;88.01;100730.78;5040923;28;20540;-76
2021/09/12 03:57:16;;;;;;;10.48;7.43;;;;;;;16.49;87.84;100726.31;5041092;28;20041;-76
2021/09/12 03:59:41;;;;;;;11.35;7.78;;;;;;;16.49;87.96;100727.19;5043129;28;20020;-76
2021/09/12 04:02:06;;;;;;;14.55;9.63;;;;;;;16.51;87.87;100730.69;5042160;28;20041;-76
2021/09/12 04:04:32;;;;;;;12.20;8.23;;;;;;;16.52;88.36;100731.53;5039412;28;20041;-76
2021/09/12 04:06:57;;;;;;;10.43;8.30;;;;;;;16.51;88.47;100735.13;5042899;28;20047;-76
2021/09/12 04:09:22;;;;;;;10.68;7.65;;;;;;;16.60;88.35;100730.41;5030241;28;20049;-76
2021/09/12 04:11:48;;;;;;;16.17;10.07;;;;;;;16.70;87.78;100725.72;5042797;28;20041;-76
2021/09/12 04:14:13;;;;;;;7.70;5.95;;;;;;;16.76;87.05;100727.31;5021866;28;20045;-76
2021/09/12 04:16:40;;;;;;;7.28;4.80;;;;;;;16.75;86.30;100722.91;5041348;28;20041;-76
2021/09/12 04:19:05;;;;;;;6.97;5.35;;;;;;;16.63;86.83;100727.66;5040493;28;20049;-76
2021/09/12 04:21:31;;;;;;;8.48;5.93;;;;;;;16.55;87.37;100732.31;5040801;28;20040;-76
2021/09/12 04:23:56;;;;;;;10.48;7.35;;;;;;;16.51;87.82;100736.00;5040552;28;20511;-76
2021/09/12 04:26:22;;;;;;;9.48;7.05;;;;;;;16.51;87.92;100730.69;5040851;28;20041;-76
2021/09/12 04:28:47;;;;;;;8.55;6.30;;;;;;;16.57;87.82;100732.28;5041587;28;20044;-76
2021/09/12 04:31:12;;;;;;;11.68;7.78;;;;;;;16.60;87.39;100725.09;5039894;28;20041;-76
2021/09/12 04:33:38;;;;;;;12.88;7.75;;;;;;;16.58;87.89;100739.34;5042059;28;20044;-76
2021/09/12 04:36:04;;;;;;;10.80;6.72;;;;;;;16.49;88.04;100734.31;5039242;28;20037;-76
2021/09/12 04:38:29;;;;;;;12.30;6.35;;;;;;;16.49;88.22;100740.50;5042718;28;20570;-76
2021/09/12 04:40:54;;;;;;;10.27;7.45;;;;;;;16.57;88.65;100737.63;5021566;28;20041;-76
2021/09/12 04:43:20;;;;;;;11.48;8.32;;;;;;;16.64;87.98;100731.22;5042148;28;20040;-76
2021/09/12 04:45:45;;;;;;;8.98;6.78;;;;;;;16.68;87.49;100745.31;5039848;28;20045;-76
2021/09/12 04:48:10;;;;;;;8.60;7.05;;;;;;;16.68;87.26;100742.66;5040701;28;20048;-75
2021/09/12 04:50:36;;;;;;;11.98;8.73;;;;;;;16.68;87.68;100750.66;5033002;28;20037;-76
2021/09/12 04:53:01;;;;;;;9.23;7.47;;;;;;;16.72;87.63;100744.34;5047005;28;20021;-77
2021/09/12 04:55:27;;;;;;;9.35;7.28;;;;;;;16.74;87.56;100742.47;5049663;28;20406;-76
2021/09/12 04:57:52;;;;;;;12.68;8.98;;;;;;;16.82;87.55;100746.72;5048713;28;20072;-76
2021/09/12 05:00:18;;;;;;;8.05;6.60;;;;;;;16.83;87.27;100748.47;5031883;28;20064;-75
2021/09/12 05:02:44;;;;;;;6.80;6.03;;;;;;;16.83;86.90;100742.25;5050414;28;20049;-76
2021/09/12 05:05:10;;;;;;;8.75;6.15;;;;;;;16.85;87.26;100745.75;5038153;28;20064;-75
2021/09/12 05:07:35;;;;;;;9.63;6.80;;;;;;;16.79;86.94;100746.81;5042758;28;20041;-76
2021/09/12 05:10:00;;;;;;;8.43;6.10;;;;;;;16.77;86.64;100747.75;5048950;28;20037;-77
2021/09/12 05:12:28;;;;;;;9.05;6.05;;;;;;;16.77;86.20;100745.06;5026962;28;20029;-76
2021/09/12 05:14:53;;;;;;;9.05;6.20;;;;;;;16.77;86.83;100742.41;5046512;28;20044;-78
2021/09/12 05:17:19;;;;;;;6.80;5.53;;;;;;;16.83;86.70;100752.91;5042749;28;20461;-77
2021/09/12 05:19:44;;;;;;;10.23;6.68;;;;;;;16.89;86.42;100747.41;5046041;28;20094;-77
2021/09/12 05:22:09;;;;;;;8.50;6.93;;;;;;;16.94;86.33;100748.16;5047527;28;20110;-78
2021/09/12 05:24:35;;;;;;;8.52;6.20;;;;;;;16.97;86.66;100749.84;5048978;28;20045;-77
2021/09/12 05:27:00;;;;;;;9.35;8.10;;;;;;;17.00;86.89;100748.00;5052291;28;20040;-77
2021/09/12 05:29:25;;;;;;;11.93;9.60;;;;;;;17.04;86.71;100752.28;5051555;28;20092;-77
2021/09/12 05:31:51;;;;;;;10.93;8.35;;;;;;;17.03;87.38;100745.22;5053328;28;20037;-77
2021/09/12 05:34:17;;;;;;;8.88;7.15;;;;;;;17.14;86.75;100741.38;5049667;28;20053;-77
2021/09/12 05:36:42;;;;;;;9.80;8.32;;;;;;;17.25;86.38;100741.91;5054109;28;20064;-77
2021/09/12 05:39:08;;;;;;;9.32;8.32;;;;;;;17.31;86.08;100745.25;5050736;28;20124;-77
2021/09/12 05:41:33;;;;;;;12.65;8.95;;;;;;;17.26;86.58;100752.50;5053865;28;20491;-76
2021/09/12 05:43:59;;;;;;;14.77;9.82;;;;;;;17.28;86.42;100747.16;5054036;28;20033;-78
2021/09/12 05:46:24;;;;;;;11.30;8.45;;;;;;;17.38;86.02;100756.63;5058188;28;20044;-77
2021/09/12 05:48:49;;;;;;;9.10;7.25;;;;;;;17.49;85.63;100746.47;5059823;28;20039;-76
2021/09/12 05:51:15;;;;;;;12.10;10.02;;;;;;;17.55;85.45;100747.22;5058179;28;20543;-77
2021/09/12 05:53:40;;;;;;;9.80;8.30;;;;;;;17.65;85.70;100749.53;5054437;28;20040;-77
2021/09/12 05:56:05;;;;;;;15.15;11.80;;;;;;;17.74;85.44;100749.25;5058497;28;20047;-77
2021/09/12 05:58:31;;;;;;;14.63;9.95;;;;;;;17.78;85.32;100746.47;5055835;28;20041;-77
2021/09/12 06:00:56;;;;;;;12.48;9.90;;;;;;;17.85;85.11;100746.25;5056158;28;20032;-77
2021/09/12 06:03:21;;;;;;;14.05;9.80;;;;;;;17.86;85.55;100748.00;5052683;28;20042;-77
2021/09/12 06:05:47;;;;;;;13.73;9.93;;;;;;;17.95;85.53;100750.38;5057305;28;20041;-77
2021/09/12 06:08:12;;;;;;;13.75;10.02;;;;;;;18.08;85.17;100745.50;5052390;28;20101;-77
2021/09/12 06:10:37;;;;;;;13.32;10.80;;;;;;;18.18;85.18;100748.72;5055932;28;20461;-77
2021/09/12 06:13:03;;;;;;;11.43;9.55;;;;;;;18.29;84.66;100751.91;5053224;28;20048;-77
2021/09/12 06:15:28;;;;;;;12.30;9.95;;;;;;;18.32;84.57;100762.50;5054841;28;20053;-76
2021/09/12 06:17:53;;;;;;;15.38;11.82;;;;;;;18.36;84.83;100758.75;5053958;28;20105;-77
2021/09/12 06:20:19;;;;;;;14.02;11.00;;;;;;;18.42;84.90;100770.16;5053991;28;20029;-77
2021/09/12 06:22:46;;;;;;;13.77;11.18;;;;;;;18.50;84.43;100762.78;5054911;28;20522;-78
2021/09/12 06:25:13;;;;;;;14.18;11.05;;;;;;;18.45;84.45;100757.59;5053631;28;20030;-77
2021/09/12 06:27:38;;;;;;;15.32;11.20;;;;;;;18.49;84.42;100759.22;5055276;28;20025;-78
2021/09/12 06:30:06;;;;;;;13.35;10.50;;;;;;;18.47;84.68;100774.44;5052327;28;20071;-77
2021/09/12 06:32:31;;;;;;;17.40;13.35;;;;;;;18.52;84.58;100768.91;5055248;28;20037;-78
2021/09/12 06:34:57;;;;;;;16.35;11.60;;;;;;;18.64;84.04;100765.81;5052968;28;20064;-77
2021/09/12 06:37:22;;;;;;;12.52;10.52;;;;;;;18.74;83.97;100764.56;5037998;28;20124;-77
2021/09/12 06:39:47;;;;;;;11.98;9.75;;;;;;;18.92;83.38;100763.06;5052190;28;20045;-78
2021/09/12 06:42:13;;;;;;;15.00;12.23;;;;;;;19.00;83.54;100765.44;5055991;28;20028;-78
2021/09/12 06:44:38;;;;;;;14.88;11.65;;;;;;;19.08;82.67;100755.34;5053779;28;20048;-78
2021/09/12 06:47:04;;;;;;;15.07;12.18;;;;;;;19.08;82.15;100760.69;5055089;28;20041;-77
2021/09/12 06:49:29;;;;;;;14.55;11.30;;;;;;;19.18;82.35;100755.88;5037020;28;20037;-77
2021/09/12 06:51:55;;;;;;;15.27;11.95;;;;;;;19.12;81.88;100762.28;5054489;28;20029;-77
2021/09/12 06:54:20;;;;;;;13.23;11.23;;;;;;;19.18;82.29;100758.53;5065721;28;20025;-77
2021/09/12 06:56:45;;;;;;;14.38;12.02;;;;;;;19.20;81.75;100762.00;5055609;28;20037;-77
2021/09/12 06:59:11;;;;;;;13.35;11.65;;;;;;;19.20;82.02;100757.56;5052739;28;20041;-78
2021/09/12 07:01:36;;;;;;;14.63;11.70;;;;;;;19.29;81.25;100756.31;5054908;28;20280;-78
2021/09/12 07:04:01;;;;;;;13.40;12.02;;;;;;;19.37;80.85;100753.34;5051573;28;20037;-77
2021/09/12 07:06:26;;;;;;;13.38;11.70;;;;;;;19.49;80.36;100758.19;5054701;28;20075;-78
2021/09/12 07:08:52;;;;;;;14.80;11.45;;;;;;;19.69;79.91;100755.63;5052688;28;20092;-77
2021/09/12 07:11:17;;;;;;;14.63;10.98;;;;;;;19.85;79.94;100761.22;5054348;28;20036;-77
2021/09/12 07:13:43;;;;;;;13.05;11.68;;;;;;;19.96;79.85;100768.81;5051674;28;20037;-77
2021/09/12 07:16:09;;;;;;;13.27;11.88;;;;;;;20.07;79.00;100763.03;5053520;28;20069;-77
2021/09/12 07:18:34;;;;;;;12.57;11.27;;;;;;;20.16;78.44;100756.41;5053211;28;20041;-77
2021/09/12 07:20:59;;;;;;;14.38;11.30;;;;;;;20.30;77.92;100759.38;5052507;28;20045;-77
2021/09/12 07:23:25;;;;;;;12.40;11.10;;;;;;;20.31;76.98;100770.03;5052445;28;20040;-77
2021/09/12 07:25:50;;;;;;;12.20;10.90;;;;;;;20.41;77.70;100767.84;5052481;28;20055;-77
2021/09/12 07:28:15;;;;;;;12.80;10.80;;;;;;;20.53;77.40;100775.31;5054109;28;20033;-77
2021/09/12 07:30:41;;;;;;;11.95;10.60;;;;;;;20.63;75.27;100774.97;5042462;28;20068;-77
2021/09/12 07:33:06;;;;;;;14.63;10.93;;;;;;;20.66;74.62;100772.16;5054317;28;20044;-77
2021/09/12 07:35:33;;;;;;;12.90;10.32;;;;;;;20.65;73.56;100778.47;5051247;28;20025;-77
2021/09/12 07:37:58;;;;;;;10.98;9.88;;;;;;;20.69;72.42;100783.59;5053454;28;20036;-77
2021/09/12 07:40:24;;;;;;;10.65;8.55;;;;;;;20.66;71.92;100786.44;5049519;28;20037;-76
2021/09/12 07:42:51;;;;;;;12.10;8.98;;;;;;;20.76;70.90;100784.22;5042482;28;20051;-77
2021/09/12 07:45:16;;;;;;;14.98;9.55;;;;;;;20.83;72.53;100780.34;5055421;28;20124;-77
2021/09/12 07:47:41;;;;;;;12.98;9.68;;;;;;;20.98;71.75;100782.28;5056308;28;20092;-77
2021/09/12 07:50:07;;;;;;;9.90;8.77;;;;;;;21.09;70.94;100784.50;5052126;28;20029;-77
2021/09/12 07:52:32;;;;;;;11.80;8.38;;;;;;;21.08;70.64;100784.56;5050308;28;20389;-77
2021/09/12 07:54:58;;;;;;;11.85;8.90;;;;;;;20.92;69.78;100790.63;5050448;28;20120;-78
2021/09/12 07:57:23;;;;;;;10.40;8.10;;;;;;;20.89;70.15;100788.09;5052518;28;20041;-77
2021/09/12 07:59:48;;;;;;;9.48;7.15;;;;;;;20.97;70.56;100793.13;5049811;28;20045;-77
2021/09/12 08:02:14;;;;;;;9.40;7.60;;;;;;;21.12;69.44;100791.56;5053614;28;20044;-77
2021/09/12 08:04:39;;;;;;;10.93;8.00;;;;;;;21.23;69.35;100797.28;5049641;28;20113;-77
2021/09/12 08:07:04;;;;;;;8.85;7.95;;;;;;;21.18;69.08;100792.13;5052117;28;20060;-76
2021/09/12 08:09:30;;;;;;;12.27;8.73;;;;;;;21.10;68.10;100796.13;5050635;28;20064;-77
2021/09/12 08:11:56;;;;;;;9.82;8.63;;;;;;;21.02;68.31;100805.38;5051639;28;20492;-78
2021/09/12 08:14:21;;;;;;;11.68;8.80;;;;;;;20.96;68.66;100797.63;5050481;28;20048;-77
2021/09/12 08:16:47;;;;;;;11.60;9.20;;;;;;;21.04;67.68;100801.75;5050846;28;20037;-76
2021/09/12 08:19:12;;;;;;;10.30;8.07;;;;;;;21.12;68.33;100796.94;5051071;28;20043;-77
2021/09/12 08:21:37;;;;;;;11.30;8.85;;;;;;;21.23;68.07;100791.91;5050634;28;20543;-76
2021/09/12 08:24:05;;;;;;;10.07;8.32;;;;;;;21.27;67.74;100796.19;5034381;28;20044;-77
2021/09/12 08:26:30;;;;;;;10.10;7.75;;;;;;;21.26;67.95;100794.47;5048480;28;20384;-78
2021/09/12 08:28:56;;;;;;;8.70;7.65;;;;;;;21.37;67.83;100791.28;5057408;28;20044;-77
2021/09/12 08:31:21;;;;;;;8.52;6.95;;;;;;;21.42;66.76;100797.34;5049177;28;20116;-76
2021/09/12 08:33:46;;;;;;;9.90;7.65;;;;;;;21.48;66.13;100796.16;5052335;28;20069;-77
2021/09/12 08:36:12;;;;;;;11.30;8.10;;;;;;;21.51;65.64;100796.00;5051757;28;20048;-77
2021/09/12 08:38:37;;;;;;;8.50;6.90;;;;;;;21.62;64.55;100801.78;5049816;28;20033;-77
2021/09/12 08:41:02;;;;;;;8.77;6.20;;;;;;;21.68;64.93;100798.78;5051103;28;20080;-77
2021/09/12 08:43:28;;;;;;;7.68;5.28;;;;;;;21.86;63.33;100800.56;5049932;28;20045;-77
2021/09/12 08:45:54;;;;;;;6.75;4.50;;;;;;;21.85;61.77;100796.16;5049500;28;20037;-76
2021/09/12 08:48:19;;;;;;;5.97;3.92;;;;;;;21.90;62.28;100793.22;5050510;28;20037;-77
2021/09/12 08:50:45;;;;;;;6.40;5.15;;;;;;;21.97;63.66;100791.97;5049597;28;20033;-77
2021/09/12 08:53:11;;;;;;;5.72;4.18;;;;;;;21.96;63.11;100786.69;5053459;28;20099;-78
2021/09/12 08:55:36;;;;;;;7.30;5.40;;;;;;;21.86;61.90;100797.88;5052577;28;20522;-77
2021/09/12 08:58:04;;;;;;;7.80;5.03;;;;;;;21.89;62.44;100796.88;5055300;28;20079;-77
2021/09/12 09:00:29;;;;;;;6.55;5.05;;;;;;;21.95;62.02;100795.69;5050800;28;20089;-78
2021/09/12 09:03:00;;;;;;;6.20;4.65;;;;;;;22.10;61.68;100794.94;5055325;28;20045;-77
2021/09/12 09:05:30;;;;;;;6.73;4.23;;;;;;;22.16;60.91;100800.00;5056505;28;20036;-76
2021/09/12 09:08:11;;;;;;;5.28;4.10;;;;;;;22.06;60.77;100793.31;5051851;28;20519;-77
2021/09/12 09:10:45;;;;;;;7.18;3.78;;;;;;;22.15;61.38;100789.34;5059336;28;20025;-77
2021/09/12 09:13:30;;;;;;;7.00;4.53;;;;;;;22.30;60.32;100778.72;5052088;28;20041;-77
2021/09/12 09:16:00;;;;;;;6.53;4.25;;;;;;;22.31;60.91;100783.13;5054953;28;20037;-77
2021/09/12 09:18:40;;;;;;;6.00;3.78;;;;;;;22.36;59.03;100784.72;5052998;28;20471;-77
2021/09/12 09:21:27;;;;;;;5.20;3.50;;;;;;;22.52;59.44;100783.84;5050423;28;20072;-77
2021/09/12 09:24:22;;;;;;;6.13;4.25;;;;;;;22.55;59.37;100780.13;5054567;28;20029;-77
2021/09/12 09:26:53;;;;;;;5.65;4.15;;;;;;;22.54;58.12;100781.94;5055180;28;20037;-78
2021/09/12 09:29:23;;;;;;;4.57;3.15;;;;;;;22.54;57.32;100778.41;5051823;28;20030;-77
2021/09/12 09:32:20;;;;;;;6.30;3.80;;;;;;;22.72;57.17;100777.44;5035506;28;20041;-78
2021/09/12 09:34:45;;;;;;;5.32;3.90;;;;;;;22.79;57.94;100771.72;5042984;28;20053;-77
2021/09/12 09:37:12;;;;;;;5.28;3.55;;;;;;;23.01;57.86;100772.34;5052198;28;20037;-76
2021/09/12 09:39:42;;;;;;;6.88;4.65;;;;;;;23.02;57.76;100763.31;5052221;28;20483;-78
2021/09/12 09:42:34;;;;;;;6.75;4.43;;;;;;;22.70;58.26;100768.56;5052079;28;20071;-77
2021/09/12 09:45:01;;;;;;;7.25;4.80;;;;;;;22.73;58.83;100772.91;5039792;28;20041;-77
2021/09/12 09:47:27;;;;;;;8.95;3.95;;;;;;;22.99;58.96;100771.53;5050327;28;20051;-77
2021/09/12 09:50:16;;;;;;;4.63;4.05;;;;;;;23.15;58.62;100768.88;5052880;28;20538;-77
2021/09/12 09:52:47;;;;;;;6.80;4.30;;;;;;;23.44;57.92;100763.72;5052774;28;20040;-77
2021/09/12 09:55:17;;;;;;;9.45;4.82;;;;;;;23.60;56.26;100765.44;5054367;28;20033;-77
2021/09/12 09:57:48;;;;;;;5.55;3.92;;;;;;;23.67;55.38;100763.28;5054053;28;20395;-77
2021/09/12 10:00:14;;;;;;;6.80;4.50;;;;;;;23.69;55.54;100769.47;5049650;28;20060;-77
2021/09/12 10:02:41;;;;;;;5.35;4.28;;;;;;;23.65;56.12;100761.63;5051185;28;20068;-78
2021/09/12 10:05:08;;;;;;;5.32;4.07;;;;;;;23.65;56.31;100758.94;5049799;28;20104;-77
2021/09/12 10:07:35;;;;;;;4.80;3.72;;;;;;;23.81;54.65;100763.38;5035343;28;20057;-77
2021/09/12 10:10:02;;;;;;;5.03;3.85;;;;;;;23.85;54.85;100758.69;5053631;28;20068;-78
2021/09/12 10:12:28;;;;;;;5.10;4.13;;;;;;;23.82;55.15;100757.03;5052714;28;20041;-78
2021/09/12 10:14:57;;;;;;;7.35;4.20;;;;;;;23.83;55.30;100755.22;5048024;28;20037;-78
2021/09/12 10:17:26;;;;;;;5.30;3.40;;;;;;;23.93;55.05;100756.41;5041968;28;20466;-78
2021/09/12 10:20:21;;;;;;;6.53;4.43;;;;;;;24.00;53.90;100751.56;5052741;28;20037;-77
2021/09/12 10:23:01;;;;;;;5.53;4.00;;;;;;;24.30;54.89;100753.38;5052335;28;20034;-77
2021/09/12 10:25:28;;;;;;;5.30;3.42;;;;;;;24.48;53.87;100753.16;5038510;28;20036;-77
2021/09/12 10:27:56;;;;;;;5.53;3.83;;;;;;;24.77;52.81;100742.41;5039367;28;20155;-77
2021/09/12 10:30:25;;;;;;;4.97;3.90;;;;;;;24.79;53.38;100737.78;5049721;28;20068;-77
2021/09/12 10:32:52;;;;;;;5.28;4.30;;;;;;;24.85;52.88;100745.50;5049105;28;20038;-77
2021/09/12 10:35:19;;;;;;;4.57;3.47;;;;;;;25.09;51.81;100732.28;5050484;28;20706;-77
2021/09/12 10:37:59;;;;;;;5.00;3.83;;;;;;;25.29;51.44;100733.75;5050768;28;20035;-78
2021/09/12 10:41:04;;;;;;;4.55;3.90;;;;;;;25.33;50.92;100735.28;5050239;28;20502;-77
2021/09/12 10:43:30;;;;;;;5.30;3.33;;;;;;;25.26;50.11;100728.56;5052069;28;20048;-77
2021/09/12 10:46:02;;;;;;;5.75;3.10;;;;;;;24.98;49.04;100731.25;5042219;28;20048;-77
2021/09/12 10:48:29;;;;;;;3.97;2.88;;;;;;;25.04;50.16;100733.53;5048449;28;20029;-77
2021/09/12 10:50:57;;;;;;;5.28;3.20;;;;;;;25.01;49.82;100728.34;5052142;28;20168;-78
2021/09/12 10:53:47;;;;;;;6.65;3.25;;;;;;;24.98;51.27;100728.53;5047462;28;20029;-76
2021/09/12 10:56:15;;;;;;;5.32;3.20;;;;;;;25.08;50.87;100725.16;5040500;28;20032;-77
2021/09/12 10:58:42;;;;;;;5.32;3.63;;;;;;;25.06;50.73;100718.97;5048151;28;20424;-77
2021/09/12 11:01:08;;;;;;;5.15;3.70;;;;;;;25.13;51.82;100728.44;5039077;28;20025;-77
2021/09/12 11:03:34;;;;;;;5.03;3.10;;;;;;;25.25;50.40;100726.78;5051269;28;20053;-77
2021/09/12 11:06:00;;;;;;;7.25;3.33;;;;;;;25.05;51.49;100719.97;5048874;28;20037;-77
2021/09/12 11:08:36;;;;;;;4.63;3.45;;;;;;;25.11;50.34;100719.56;5048441;28;20037;-78
2021/09/12 11:11:02;;;;;;;5.38;3.33;;;;;;;25.07;50.20;100719.84;5030480;28;20049;-78
2021/09/12 11:13:28;;;;;;;5.45;3.92;;;;;;;25.25;49.78;100721.38;5049569;28;20060;-78
2021/09/12 11:16:12;;;;;;;3.97;3.10;;;;;;;25.27;49.69;100714.06;5046554;28;20036;-77
2021/09/12 11:18:58;;;;;;;4.65;3.40;;;;;;;25.33;49.18;100713.66;5037511;28;20048;-77